Terminal Aerodrome Forecast
Issued by NWS

Home | Current Version | Previous Version | Text Only | Print | Product List | Glossary On
Versions: 1 2 3 4 5 6 7 8 9 10 11 12 13 14 15 16 17
542
FTUS45 KTFX 300543
TAFGTF
TAF
KGTF 300543Z 3006/3106 18006KT P6SM -SHRA SCT070 BKN100
     FM300800 22014KT P6SM SCT080 BKN110
     FM301300 28014G24KT P6SM SCT090 BKN150
     FM301700 30015G28KT P6SM -SHRA SCT060 BKN090
     FM302200 32014G28KT P6SM SCT090 BKN150
     FM310200 32008KT P6SM SCT120=

USA.gov is the U.S. government's official web portal to all federal, state and local government web resources and services.